sensor_id;sensor_type;location;lat;lon;timestamp;P1;durP1;ratioP1;P2;durP2;ratioP2
71464;SDS011;59274;49.874;9.154;2023-02-28T00:00:19;4.57;;;1.80;;
71464;SDS011;59274;49.874;9.154;2023-02-28T00:02:46;5.88;;;2.20;;
71464;SDS011;59274;49.874;9.154;2023-02-28T00:05:12;7.70;;;2.00;;
71464;SDS011;59274;49.874;9.154;2023-02-28T00:07:39;5.38;;;2.30;;
71464;SDS011;59274;49.874;9.154;2023-02-28T00:10:06;5.00;;;1.90;;
71464;SDS011;59274;49.874;9.154;2023-02-28T00:12:32;5.15;;;2.10;;
71464;SDS011;59274;49.874;9.154;2023-02-28T00:14:59;5.30;;;2.20;;
71464;SDS011;59274;49.874;9.154;2023-02-28T00:17:25;5.15;;;2.10;;
71464;SDS011;59274;49.874;9.154;2023-02-28T00:19:50;6.87;;;2.47;;
71464;SDS011;59274;49.874;9.154;2023-02-28T00:22:17;5.10;;;2.00;;
71464;SDS011;59274;49.874;9.154;2023-02-28T00:24:44;5.40;;;2.03;;
71464;SDS011;59274;49.874;9.154;2023-02-28T00:27:13;4.77;;;2.10;;
71464;SDS011;59274;49.874;9.154;2023-02-28T00:29:39;6.45;;;2.33;;
71464;SDS011;59274;49.874;9.154;2023-02-28T00:32:05;4.97;;;2.30;;
71464;SDS011;59274;49.874;9.154;2023-02-28T00:34:31;5.15;;;1.92;;
71464;SDS011;59274;49.874;9.154;2023-02-28T00:37:02;5.07;;;2.10;;
71464;SDS011;59274;49.874;9.154;2023-02-28T00:39:31;4.93;;;2.25;;
71464;SDS011;59274;49.874;9.154;2023-02-28T00:41:57;5.05;;;2.35;;
71464;SDS011;59274;49.874;9.154;2023-02-28T00:44:23;6.47;;;2.30;;
71464;SDS011;59274;49.874;9.154;2023-02-28T00:46:48;5.00;;;2.17;;
71464;SDS011;59274;49.874;9.154;2023-02-28T00:49:14;4.18;;;1.70;;
71464;SDS011;59274;49.874;9.154;2023-02-28T00:51:39;4.40;;;1.90;;
71464;SDS011;59274;49.874;9.154;2023-02-28T00:54:05;4.13;;;1.80;;
71464;SDS011;59274;49.874;9.154;2023-02-28T00:56:30;4.43;;;1.90;;
71464;SDS011;59274;49.874;9.154;2023-02-28T00:58:55;6.43;;;2.13;;
71464;SDS011;59274;49.874;9.154;2023-02-28T01:01:21;5.83;;;2.27;;
71464;SDS011;59274;49.874;9.154;2023-02-28T01:03:46;5.90;;;2.40;;
71464;SDS011;59274;49.874;9.154;2023-02-28T01:06:12;4.83;;;2.00;;
71464;SDS011;59274;49.874;9.154;2023-02-28T01:08:37;5.70;;;2.50;;
71464;SDS011;59274;49.874;9.154;2023-02-28T01:11:12;6.23;;;2.17;;
71464;SDS011;59274;49.874;9.154;2023-02-28T01:13:40;5.90;;;1.90;;
71464;SDS011;59274;49.874;9.154;2023-02-28T01:16:07;6.47;;;2.10;;
71464;SDS011;59274;49.874;9.154;2023-02-28T01:18:32;5.23;;;1.90;;
71464;SDS011;59274;49.874;9.154;2023-02-28T01:20:58;5.60;;;2.50;;
71464;SDS011;59274;49.874;9.154;2023-02-28T01:23:30;5.43;;;2.20;;
71464;SDS011;59274;49.874;9.154;2023-02-28T01:25:56;7.85;;;2.10;;
71464;SDS011;59274;49.874;9.154;2023-02-28T01:28:21;6.90;;;2.30;;
71464;SDS011;59274;49.874;9.154;2023-02-28T01:30:50;5.10;;;1.93;;
71464;SDS011;59274;49.874;9.154;2023-02-28T01:33:16;5.50;;;2.10;;
71464;SDS011;59274;49.874;9.154;2023-02-28T01:35:41;5.57;;;2.20;;
71464;SDS011;59274;49.874;9.154;2023-02-28T01:38:07;6.18;;;2.25;;
71464;SDS011;59274;49.874;9.154;2023-02-28T01:40:33;5.22;;;2.00;;
71464;SDS011;59274;49.874;9.154;2023-02-28T01:42:58;6.97;;;2.20;;
71464;SDS011;59274;49.874;9.154;2023-02-28T01:45:28;6.63;;;2.08;;
71464;SDS011;59274;49.874;9.154;2023-02-28T01:47:59;5.47;;;2.25;;
71464;SDS011;59274;49.874;9.154;2023-02-28T01:50:29;5.03;;;2.08;;
71464;SDS011;59274;49.874;9.154;2023-02-28T01:53:00;4.88;;;1.98;;
71464;SDS011;59274;49.874;9.154;2023-02-28T01:55:29;4.68;;;2.13;;
71464;SDS011;59274;49.874;9.154;2023-02-28T01:57:57;4.77;;;2.00;;
71464;SDS011;59274;49.874;9.154;2023-02-28T02:00:26;5.43;;;2.17;;
71464;SDS011;59274;49.874;9.154;2023-02-28T02:02:54;5.03;;;2.17;;
71464;SDS011;59274;49.874;9.154;2023-02-28T02:05:26;4.82;;;1.85;;
71464;SDS011;59274;49.874;9.154;2023-02-28T02:07:56;6.90;;;2.10;;
71464;SDS011;59274;49.874;9.154;2023-02-28T02:10:33;6.30;;;2.10;;
71464;SDS011;59274;49.874;9.154;2023-02-28T02:13:22;4.20;;;1.92;;
71464;SDS011;59274;49.874;9.154;2023-02-28T02:16:11;6.30;;;2.00;;
71464;SDS011;59274;49.874;9.154;2023-02-28T02:21:39;5.45;;;2.20;;
71464;SDS011;59274;49.874;9.154;2023-02-28T02:35:38;4.40;;;1.80;;
71464;SDS011;59274;49.874;9.154;2023-02-28T02:38:35;5.63;;;2.27;;
71464;SDS011;59274;49.874;9.154;2023-02-28T02:41:24;4.72;;;1.90;;
71464;SDS011;59274;49.874;9.154;2023-02-28T02:43:50;4.80;;;2.00;;
71464;SDS011;59274;49.874;9.154;2023-02-28T02:46:46;4.20;;;1.73;;
71464;SDS011;59274;49.874;9.154;2023-02-28T02:49:19;5.35;;;2.03;;
71464;SDS011;59274;49.874;9.154;2023-02-28T02:51:49;4.63;;;1.80;;
71464;SDS011;59274;49.874;9.154;2023-02-28T02:54:20;3.42;;;1.67;;
71464;SDS011;59274;49.874;9.154;2023-02-28T02:56:53;6.47;;;2.13;;
71464;SDS011;59274;49.874;9.154;2023-02-28T02:59:23;5.10;;;2.15;;
71464;SDS011;59274;49.874;9.154;2023-02-28T03:01:54;6.45;;;2.47;;
71464;SDS011;59274;49.874;9.154;2023-02-28T03:04:25;5.57;;;2.20;;
71464;SDS011;59274;49.874;9.154;2023-02-28T03:06:56;4.72;;;2.00;;
71464;SDS011;59274;49.874;9.154;2023-02-28T03:09:22;6.00;;;2.30;;
71464;SDS011;59274;49.874;9.154;2023-02-28T03:11:48;5.20;;;2.10;;
71464;SDS011;59274;49.874;9.154;2023-02-28T03:24:58;4.47;;;2.10;;
71464;SDS011;59274;49.874;9.154;2023-02-28T03:27:30;5.38;;;2.28;;
71464;SDS011;59274;49.874;9.154;2023-02-28T03:30:00;5.05;;;2.10;;
71464;SDS011;59274;49.874;9.154;2023-02-28T03:32:35;5.28;;;2.15;;
71464;SDS011;59274;49.874;9.154;2023-02-28T03:35:14;5.80;;;2.45;;
71464;SDS011;59274;49.874;9.154;2023-02-28T03:37:47;6.63;;;2.30;;
71464;SDS011;59274;49.874;9.154;2023-02-28T03:40:25;6.68;;;2.40;;
71464;SDS011;59274;49.874;9.154;2023-02-28T03:42:58;6.65;;;2.60;;
71464;SDS011;59274;49.874;9.154;2023-02-28T03:45:28;7.00;;;2.60;;
71464;SDS011;59274;49.874;9.154;2023-02-28T03:47:58;4.53;;;2.00;;
71464;SDS011;59274;49.874;9.154;2023-02-28T03:50:38;6.23;;;2.17;;
71464;SDS011;59274;49.874;9.154;2023-02-28T03:55:35;5.40;;;2.25;;
71464;SDS011;59274;49.874;9.154;2023-02-28T03:58:30;6.90;;;2.30;;
71464;SDS011;59274;49.874;9.154;2023-02-28T04:01:31;7.82;;;2.72;;
71464;SDS011;59274;49.874;9.154;2023-02-28T04:03:51;6.93;;;2.40;;
71464;SDS011;59274;49.874;9.154;2023-02-28T04:06:18;6.00;;;2.70;;
71464;SDS011;59274;49.874;9.154;2023-02-28T04:08:45;7.82;;;2.38;;
71464;SDS011;59274;49.874;9.154;2023-02-28T04:13:39;6.07;;;2.47;;
71464;SDS011;59274;49.874;9.154;2023-02-28T04:16:08;5.10;;;2.30;;
71464;SDS011;59274;49.874;9.154;2023-02-28T04:18:37;6.32;;;2.47;;
71464;SDS011;59274;49.874;9.154;2023-02-28T04:21:03;6.32;;;2.53;;
71464;SDS011;59274;49.874;9.154;2023-02-28T04:23:29;6.38;;;2.72;;
71464;SDS011;59274;49.874;9.154;2023-02-28T04:25:55;6.38;;;2.30;;
71464;SDS011;59274;49.874;9.154;2023-02-28T04:28:20;6.53;;;2.60;;
71464;SDS011;59274;49.874;9.154;2023-02-28T04:30:46;6.85;;;2.55;;
71464;SDS011;59274;49.874;9.154;2023-02-28T04:33:11;6.83;;;2.60;;
71464;SDS011;59274;49.874;9.154;2023-02-28T04:35:37;6.10;;;2.23;;
71464;SDS011;59274;49.874;9.154;2023-02-28T04:38:02;6.27;;;2.40;;
71464;SDS011;59274;49.874;9.154;2023-02-28T04:40:28;6.60;;;2.42;;
71464;SDS011;59274;49.874;9.154;2023-02-28T04:42:53;6.90;;;3.10;;
71464;SDS011;59274;49.874;9.154;2023-02-28T04:45:19;6.70;;;2.50;;
71464;SDS011;59274;49.874;9.154;2023-02-28T04:47:44;7.27;;;3.13;;
71464;SDS011;59274;49.874;9.154;2023-02-28T04:50:10;8.43;;;3.33;;
71464;SDS011;59274;49.874;9.154;2023-02-28T04:52:35;6.80;;;2.53;;
71464;SDS011;59274;49.874;9.154;2023-02-28T04:55:01;8.77;;;3.20;;
71464;SDS011;59274;49.874;9.154;2023-02-28T04:57:26;7.50;;;3.20;;
71464;SDS011;59274;49.874;9.154;2023-02-28T04:59:52;8.43;;;2.90;;
71464;SDS011;59274;49.874;9.154;2023-02-28T05:02:17;6.60;;;2.63;;
71464;SDS011;59274;49.874;9.154;2023-02-28T05:04:43;5.53;;;2.60;;
71464;SDS011;59274;49.874;9.154;2023-02-28T05:07:08;5.63;;;2.20;;
71464;SDS011;59274;49.874;9.154;2023-02-28T05:09:34;6.40;;;2.60;;
71464;SDS011;59274;49.874;9.154;2023-02-28T05:12:00;5.87;;;2.53;;
71464;SDS011;59274;49.874;9.154;2023-02-28T05:14:25;6.82;;;2.60;;
71464;SDS011;59274;49.874;9.154;2023-02-28T05:16:51;7.20;;;3.03;;
71464;SDS011;59274;49.874;9.154;2023-02-28T05:19:16;6.37;;;2.60;;
71464;SDS011;59274;49.874;9.154;2023-02-28T05:21:48;7.43;;;3.07;;
71464;SDS011;59274;49.874;9.154;2023-02-28T05:24:16;8.88;;;3.05;;
71464;SDS011;59274;49.874;9.154;2023-02-28T05:26:48;10.38;;;2.85;;
71464;SDS011;59274;49.874;9.154;2023-02-28T05:29:15;9.67;;;3.40;;
71464;SDS011;59274;49.874;9.154;2023-02-28T05:31:40;9.13;;;3.35;;
71464;SDS011;59274;49.874;9.154;2023-02-28T05:34:06;7.40;;;2.70;;
71464;SDS011;59274;49.874;9.154;2023-02-28T05:36:31;8.47;;;3.30;;
71464;SDS011;59274;49.874;9.154;2023-02-28T05:38:57;7.30;;;3.25;;
71464;SDS011;59274;49.874;9.154;2023-02-28T05:41:22;9.77;;;3.73;;
71464;SDS011;59274;49.874;9.154;2023-02-28T05:43:48;8.47;;;3.27;;
71464;SDS011;59274;49.874;9.154;2023-02-28T05:46:14;8.93;;;3.17;;
71464;SDS011;59274;49.874;9.154;2023-02-28T05:48:40;8.57;;;3.63;;
71464;SDS011;59274;49.874;9.154;2023-02-28T05:51:07;7.93;;;3.03;;
71464;SDS011;59274;49.874;9.154;2023-02-28T05:53:33;7.53;;;3.25;;
71464;SDS011;59274;49.874;9.154;2023-02-28T05:55:59;7.45;;;3.00;;
71464;SDS011;59274;49.874;9.154;2023-02-28T05:58:25;7.67;;;2.97;;
71464;SDS011;59274;49.874;9.154;2023-02-28T06:00:54;8.45;;;2.70;;
71464;SDS011;59274;49.874;9.154;2023-02-28T06:03:19;7.50;;;3.00;;
71464;SDS011;59274;49.874;9.154;2023-02-28T06:05:45;9.23;;;3.13;;
71464;SDS011;59274;49.874;9.154;2023-02-28T06:08:10;7.50;;;3.10;;
71464;SDS011;59274;49.874;9.154;2023-02-28T06:10:36;5.77;;;2.47;;
71464;SDS011;59274;49.874;9.154;2023-02-28T06:13:02;6.97;;;2.90;;
71464;SDS011;59274;49.874;9.154;2023-02-28T06:15:28;7.10;;;2.80;;
71464;SDS011;59274;49.874;9.154;2023-02-28T06:17:54;7.53;;;2.50;;
71464;SDS011;59274;49.874;9.154;2023-02-28T06:20:23;5.95;;;2.47;;
71464;SDS011;59274;49.874;9.154;2023-02-28T06:22:50;8.30;;;2.70;;
71464;SDS011;59274;49.874;9.154;2023-02-28T06:25:16;7.50;;;2.53;;
71464;SDS011;59274;49.874;9.154;2023-02-28T06:27:43;6.43;;;2.45;;
71464;SDS011;59274;49.874;9.154;2023-02-28T06:30:09;7.70;;;3.00;;
71464;SDS011;59274;49.874;9.154;2023-02-28T06:32:35;8.30;;;2.95;;
71464;SDS011;59274;49.874;9.154;2023-02-28T06:35:01;7.57;;;3.17;;
71464;SDS011;59274;49.874;9.154;2023-02-28T06:37:27;7.82;;;3.10;;
71464;SDS011;59274;49.874;9.154;2023-02-28T06:39:53;6.53;;;3.20;;
71464;SDS011;59274;49.874;9.154;2023-02-28T06:42:21;8.85;;;3.53;;
71464;SDS011;59274;49.874;9.154;2023-02-28T06:44:56;8.60;;;3.45;;
71464;SDS011;59274;49.874;9.154;2023-02-28T06:47:23;8.77;;;3.03;;
71464;SDS011;59274;49.874;9.154;2023-02-28T06:49:48;8.88;;;3.60;;
71464;SDS011;59274;49.874;9.154;2023-02-28T06:52:14;11.25;;;3.85;;
71464;SDS011;59274;49.874;9.154;2023-02-28T06:54:40;9.85;;;3.78;;
71464;SDS011;59274;49.874;9.154;2023-02-28T06:57:06;8.68;;;3.85;;
71464;SDS011;59274;49.874;9.154;2023-02-28T06:59:31;12.00;;;4.00;;
71464;SDS011;59274;49.874;9.154;2023-02-28T07:01:57;8.73;;;3.50;;
71464;SDS011;59274;49.874;9.154;2023-02-28T07:04:22;9.80;;;3.60;;
71464;SDS011;59274;49.874;9.154;2023-02-28T07:06:48;7.43;;;2.88;;
71464;SDS011;59274;49.874;9.154;2023-02-28T07:09:13;8.20;;;2.60;;
71464;SDS011;59274;49.874;9.154;2023-02-28T07:11:39;8.80;;;2.80;;
71464;SDS011;59274;49.874;9.154;2023-02-28T07:14:05;8.68;;;3.20;;
71464;SDS011;59274;49.874;9.154;2023-02-28T07:16:31;7.78;;;2.75;;
71464;SDS011;59274;49.874;9.154;2023-02-28T07:18:56;6.57;;;2.70;;
71464;SDS011;59274;49.874;9.154;2023-02-28T07:21:22;5.77;;;2.33;;
71464;SDS011;59274;49.874;9.154;2023-02-28T07:23:48;8.27;;;3.40;;
71464;SDS011;59274;49.874;9.154;2023-02-28T07:26:14;6.83;;;2.90;;
71464;SDS011;59274;49.874;9.154;2023-02-28T07:28:42;7.38;;;2.95;;
71464;SDS011;59274;49.874;9.154;2023-02-28T07:31:09;6.40;;;2.90;;
71464;SDS011;59274;49.874;9.154;2023-02-28T07:33:35;6.15;;;2.40;;
71464;SDS011;59274;49.874;9.154;2023-02-28T07:36:05;6.50;;;2.88;;
71464;SDS011;59274;49.874;9.154;2023-02-28T07:38:39;6.97;;;3.03;;
71464;SDS011;59274;49.874;9.154;2023-02-28T07:41:04;7.72;;;2.75;;
71464;SDS011;59274;49.874;9.154;2023-02-28T07:43:30;6.93;;;2.67;;
71464;SDS011;59274;49.874;9.154;2023-02-28T07:46:00;7.75;;;3.00;;
71464;SDS011;59274;49.874;9.154;2023-02-28T07:48:27;8.48;;;3.45;;
71464;SDS011;59274;49.874;9.154;2023-02-28T07:50:55;6.67;;;2.70;;
71464;SDS011;59274;49.874;9.154;2023-02-28T07:53:21;8.52;;;3.53;;
71464;SDS011;59274;49.874;9.154;2023-02-28T07:55:47;6.43;;;2.90;;
71464;SDS011;59274;49.874;9.154;2023-02-28T07:58:13;7.80;;;3.00;;
71464;SDS011;59274;49.874;9.154;2023-02-28T08:00:38;7.22;;;3.00;;
71464;SDS011;59274;49.874;9.154;2023-02-28T08:03:04;9.20;;;2.80;;
71464;SDS011;59274;49.874;9.154;2023-02-28T08:05:29;10.47;;;3.17;;
71464;SDS011;59274;49.874;9.154;2023-02-28T08:07:56;12.55;;;4.78;;
71464;SDS011;59274;49.874;9.154;2023-02-28T08:10:21;8.85;;;3.30;;
71464;SDS011;59274;49.874;9.154;2023-02-28T08:12:47;8.05;;;3.35;;
71464;SDS011;59274;49.874;9.154;2023-02-28T08:15:12;6.30;;;2.87;;
71464;SDS011;59274;49.874;9.154;2023-02-28T08:17:38;8.63;;;2.97;;
71464;SDS011;59274;49.874;9.154;2023-02-28T08:20:04;6.93;;;2.88;;
71464;SDS011;59274;49.874;9.154;2023-02-28T08:22:29;11.83;;;4.27;;
71464;SDS011;59274;49.874;9.154;2023-02-28T08:24:55;9.23;;;3.67;;
71464;SDS011;59274;49.874;9.154;2023-02-28T08:27:20;7.33;;;3.27;;
71464;SDS011;59274;49.874;9.154;2023-02-28T08:29:46;7.37;;;2.97;;
71464;SDS011;59274;49.874;9.154;2023-02-28T08:32:11;7.67;;;3.00;;
71464;SDS011;59274;49.874;9.154;2023-02-28T08:34:38;8.40;;;3.70;;
71464;SDS011;59274;49.874;9.154;2023-02-28T08:37:05;7.82;;;3.15;;
71464;SDS011;59274;49.874;9.154;2023-02-28T08:39:33;8.32;;;3.45;;
71464;SDS011;59274;49.874;9.154;2023-02-28T08:41:59;9.77;;;3.77;;
71464;SDS011;59274;49.874;9.154;2023-02-28T08:44:25;6.78;;;3.25;;
71464;SDS011;59274;49.874;9.154;2023-02-28T08:46:50;7.30;;;3.10;;
71464;SDS011;59274;49.874;9.154;2023-02-28T08:49:15;7.37;;;3.23;;
71464;SDS011;59274;49.874;9.154;2023-02-28T08:51:41;7.33;;;3.20;;
71464;SDS011;59274;49.874;9.154;2023-02-28T08:54:07;7.47;;;3.37;;
71464;SDS011;59274;49.874;9.154;2023-02-28T08:56:33;7.45;;;3.22;;
71464;SDS011;59274;49.874;9.154;2023-02-28T08:58:58;8.67;;;3.23;;
71464;SDS011;59274;49.874;9.154;2023-02-28T09:01:25;6.80;;;3.10;;
71464;SDS011;59274;49.874;9.154;2023-02-28T09:03:53;9.52;;;3.00;;
71464;SDS011;59274;49.874;9.154;2023-02-28T09:06:20;9.60;;;3.58;;
71464;SDS011;59274;49.874;9.154;2023-02-28T09:08:46;8.43;;;3.55;;
71464;SDS011;59274;49.874;9.154;2023-02-28T09:11:12;9.47;;;3.73;;
71464;SDS011;59274;49.874;9.154;2023-02-28T09:13:39;9.63;;;3.80;;
71464;SDS011;59274;49.874;9.154;2023-02-28T09:16:06;8.88;;;3.53;;
71464;SDS011;59274;49.874;9.154;2023-02-28T09:18:34;7.75;;;3.45;;
71464;SDS011;59274;49.874;9.154;2023-02-28T09:21:07;10.55;;;3.88;;
71464;SDS011;59274;49.874;9.154;2023-02-28T09:23:34;9.38;;;3.80;;
71464;SDS011;59274;49.874;9.154;2023-02-28T09:26:00;10.60;;;4.28;;
71464;SDS011;59274;49.874;9.154;2023-02-28T09:28:25;8.40;;;3.83;;
71464;SDS011;59274;49.874;9.154;2023-02-28T09:30:52;8.38;;;3.67;;
71464;SDS011;59274;49.874;9.154;2023-02-28T09:33:19;7.20;;;3.00;;
71464;SDS011;59274;49.874;9.154;2023-02-28T09:35:46;8.23;;;3.00;;
71464;SDS011;59274;49.874;9.154;2023-02-28T09:38:13;7.45;;;3.30;;
71464;SDS011;59274;49.874;9.154;2023-02-28T09:43:25;7.10;;;3.05;;
71464;SDS011;59274;49.874;9.154;2023-02-28T09:45:56;8.75;;;3.45;;
71464;SDS011;59274;49.874;9.154;2023-02-28T09:48:44;6.93;;;3.22;;
71464;SDS011;59274;49.874;9.154;2023-02-28T09:51:26;9.47;;;4.27;;
71464;SDS011;59274;49.874;9.154;2023-02-28T09:53:52;16.17;;;5.28;;
71464;SDS011;59274;49.874;9.154;2023-02-28T09:56:22;8.55;;;3.58;;
71464;SDS011;59274;49.874;9.154;2023-02-28T09:59:00;8.82;;;3.38;;
71464;SDS011;59274;49.874;9.154;2023-02-28T10:10:26;7.85;;;3.63;;
71464;SDS011;59274;49.874;9.154;2023-02-28T10:12:56;7.18;;;3.13;;
71464;SDS011;59274;49.874;9.154;2023-02-28T10:15:26;8.02;;;3.50;;
71464;SDS011;59274;49.874;9.154;2023-02-28T10:17:57;7.57;;;3.60;;
71464;SDS011;59274;49.874;9.154;2023-02-28T10:20:26;11.25;;;4.70;;
71464;SDS011;59274;49.874;9.154;2023-02-28T10:25:52;8.98;;;4.15;;
71464;SDS011;59274;49.874;9.154;2023-02-28T10:28:22;8.45;;;4.07;;
71464;SDS011;59274;49.874;9.154;2023-02-28T10:30:50;8.50;;;3.60;;
71464;SDS011;59274;49.874;9.154;2023-02-28T10:33:24;7.90;;;3.30;;
71464;SDS011;59274;49.874;9.154;2023-02-28T10:35:53;7.93;;;3.55;;
71464;SDS011;59274;49.874;9.154;2023-02-28T10:38:23;9.13;;;3.92;;
71464;SDS011;59274;49.874;9.154;2023-02-28T10:41:03;8.50;;;3.47;;
71464;SDS011;59274;49.874;9.154;2023-02-28T10:43:30;9.03;;;3.40;;
71464;SDS011;59274;49.874;9.154;2023-02-28T10:46:05;8.50;;;4.00;;
71464;SDS011;59274;49.874;9.154;2023-02-28T10:48:43;10.80;;;3.97;;
71464;SDS011;59274;49.874;9.154;2023-02-28T10:51:14;7.68;;;3.50;;
71464;SDS011;59274;49.874;9.154;2023-02-28T10:56:18;8.55;;;3.83;;
71464;SDS011;59274;49.874;9.154;2023-02-28T11:01:23;8.83;;;3.77;;
71464;SDS011;59274;49.874;9.154;2023-02-28T11:03:52;8.88;;;3.78;;
71464;SDS011;59274;49.874;9.154;2023-02-28T11:06:22;10.70;;;4.32;;
71464;SDS011;59274;49.874;9.154;2023-02-28T11:08:58;7.88;;;3.85;;
71464;SDS011;59274;49.874;9.154;2023-02-28T11:11:26;8.97;;;4.30;;
71464;SDS011;59274;49.874;9.154;2023-02-28T11:13:55;9.73;;;3.80;;
71464;SDS011;59274;49.874;9.154;2023-02-28T11:16:34;9.68;;;3.85;;
71464;SDS011;59274;49.874;9.154;2023-02-28T11:19:02;10.68;;;4.38;;
71464;SDS011;59274;49.874;9.154;2023-02-28T11:21:32;7.82;;;4.10;;
71464;SDS011;59274;49.874;9.154;2023-02-28T11:24:06;7.70;;;3.77;;
71464;SDS011;59274;49.874;9.154;2023-02-28T11:26:46;10.80;;;4.32;;
71464;SDS011;59274;49.874;9.154;2023-02-28T11:34:31;9.05;;;4.32;;
71464;SDS011;59274;49.874;9.154;2023-02-28T11:36:57;9.97;;;5.17;;
71464;SDS011;59274;49.874;9.154;2023-02-28T11:39:25;11.23;;;4.88;;
71464;SDS011;59274;49.874;9.154;2023-02-28T11:47:24;63.80;;;27.05;;
71464;SDS011;59274;49.874;9.154;2023-02-28T11:50:07;26.80;;;13.27;;
71464;SDS011;59274;49.874;9.154;2023-02-28T11:52:48;10.32;;;5.80;;
71464;SDS011;59274;49.874;9.154;2023-02-28T12:06:12;9.00;;;3.80;;
71464;SDS011;59274;49.874;9.154;2023-02-28T12:09:20;10.80;;;3.85;;
71464;SDS011;59274;49.874;9.154;2023-02-28T12:15:04;8.52;;;4.32;;
71464;SDS011;59274;49.874;9.154;2023-02-28T12:20:28;8.02;;;4.40;;
71464;SDS011;59274;49.874;9.154;2023-02-28T12:25:54;9.00;;;4.53;;
71464;SDS011;59274;49.874;9.154;2023-02-28T12:28:26;9.25;;;4.40;;
71464;SDS011;59274;49.874;9.154;2023-02-28T12:33:36;9.35;;;4.97;;
71464;SDS011;59274;49.874;9.154;2023-02-28T12:36:09;9.75;;;4.93;;
71464;SDS011;59274;49.874;9.154;2023-02-28T12:38:44;10.85;;;5.40;;
71464;SDS011;59274;49.874;9.154;2023-02-28T12:41:18;10.35;;;4.20;;
71464;SDS011;59274;49.874;9.154;2023-02-28T12:43:50;10.50;;;5.00;;
71464;SDS011;59274;49.874;9.154;2023-02-28T12:46:29;10.20;;;4.78;;
71464;SDS011;59274;49.874;9.154;2023-02-28T12:49:02;8.77;;;4.18;;
71464;SDS011;59274;49.874;9.154;2023-02-28T12:51:33;10.80;;;4.70;;
71464;SDS011;59274;49.874;9.154;2023-02-28T13:13:13;11.18;;;5.22;;
71464;SDS011;59274;49.874;9.154;2023-02-28T13:15:41;9.98;;;4.65;;
71464;SDS011;59274;49.874;9.154;2023-02-28T13:18:39;12.25;;;4.18;;
71464;SDS011;59274;49.874;9.154;2023-02-28T13:21:09;9.20;;;4.47;;
71464;SDS011;59274;49.874;9.154;2023-02-28T13:34:36;8.63;;;3.67;;
71464;SDS011;59274;49.874;9.154;2023-02-28T13:39:49;10.60;;;4.68;;
71464;SDS011;59274;49.874;9.154;2023-02-28T13:42:22;8.40;;;4.28;;
71464;SDS011;59274;49.874;9.154;2023-02-28T13:47:43;8.48;;;3.95;;
71464;SDS011;59274;49.874;9.154;2023-02-28T13:52:46;8.02;;;4.10;;
71464;SDS011;59274;49.874;9.154;2023-02-28T13:55:31;8.95;;;5.03;;
71464;SDS011;59274;49.874;9.154;2023-02-28T14:11:36;13.77;;;7.13;;
71464;SDS011;59274;49.874;9.154;2023-02-28T14:14:06;13.63;;;7.00;;
71464;SDS011;59274;49.874;9.154;2023-02-28T14:16:46;17.47;;;8.10;;
71464;SDS011;59274;49.874;9.154;2023-02-28T14:19:24;13.85;;;6.38;;
71464;SDS011;59274;49.874;9.154;2023-02-28T14:28:11;9.95;;;5.00;;
71464;SDS011;59274;49.874;9.154;2023-02-28T14:38:53;7.78;;;3.95;;
71464;SDS011;59274;49.874;9.154;2023-02-28T14:41:23;9.10;;;4.03;;
71464;SDS011;59274;49.874;9.154;2023-02-28T14:43:54;9.50;;;4.13;;
71464;SDS011;59274;49.874;9.154;2023-02-28T14:46:23;8.93;;;4.60;;
71464;SDS011;59274;49.874;9.154;2023-02-28T14:48:53;9.40;;;4.40;;
71464;SDS011;59274;49.874;9.154;2023-02-28T14:51:23;9.30;;;4.68;;
71464;SDS011;59274;49.874;9.154;2023-02-28T14:53:50;9.87;;;4.77;;
71464;SDS011;59274;49.874;9.154;2023-02-28T14:56:22;12.10;;;4.50;;
71464;SDS011;59274;49.874;9.154;2023-02-28T14:58:52;11.35;;;5.28;;
71464;SDS011;59274;49.874;9.154;2023-02-28T15:01:19;11.00;;;4.72;;
71464;SDS011;59274;49.874;9.154;2023-02-28T15:03:47;9.15;;;4.68;;
71464;SDS011;59274;49.874;9.154;2023-02-28T15:06:14;9.13;;;4.47;;
71464;SDS011;59274;49.874;9.154;2023-02-28T15:08:43;9.57;;;4.40;;
71464;SDS011;59274;49.874;9.154;2023-02-28T15:11:14;9.63;;;4.53;;
71464;SDS011;59274;49.874;9.154;2023-02-28T15:13:45;9.65;;;4.80;;
71464;SDS011;59274;49.874;9.154;2023-02-28T15:16:16;9.00;;;4.53;;
71464;SDS011;59274;49.874;9.154;2023-02-28T15:18:46;9.67;;;4.80;;
71464;SDS011;59274;49.874;9.154;2023-02-28T15:21:15;9.75;;;5.35;;
71464;SDS011;59274;49.874;9.154;2023-02-28T15:23:45;9.27;;;5.13;;
71464;SDS011;59274;49.874;9.154;2023-02-28T15:26:14;10.38;;;6.50;;
71464;SDS011;59274;49.874;9.154;2023-02-28T15:28:42;9.90;;;5.63;;
71464;SDS011;59274;49.874;9.154;2023-02-28T15:31:18;9.00;;;4.75;;
71464;SDS011;59274;49.874;9.154;2023-02-28T15:34:13;8.07;;;4.60;;
71464;SDS011;59274;49.874;9.154;2023-02-28T15:36:44;9.65;;;5.00;;
71464;SDS011;59274;49.874;9.154;2023-02-28T15:39:21;8.43;;;4.50;;
71464;SDS011;59274;49.874;9.154;2023-02-28T15:41:48;9.23;;;4.80;;
71464;SDS011;59274;49.874;9.154;2023-02-28T15:44:15;9.00;;;4.57;;
71464;SDS011;59274;49.874;9.154;2023-02-28T15:46:54;9.23;;;5.03;;
71464;SDS011;59274;49.874;9.154;2023-02-28T15:49:24;8.57;;;4.65;;
71464;SDS011;59274;49.874;9.154;2023-02-28T15:51:51;9.60;;;4.53;;
71464;SDS011;59274;49.874;9.154;2023-02-28T15:54:29;10.60;;;5.03;;
71464;SDS011;59274;49.874;9.154;2023-02-28T15:57:00;9.73;;;4.90;;
71464;SDS011;59274;49.874;9.154;2023-02-28T15:59:33;10.25;;;5.03;;
71464;SDS011;59274;49.874;9.154;2023-02-28T16:04:36;11.25;;;5.85;;
71464;SDS011;59274;49.874;9.154;2023-02-28T16:07:04;9.27;;;5.40;;
71464;SDS011;59274;49.874;9.154;2023-02-28T16:09:31;11.13;;;5.28;;
71464;SDS011;59274;49.874;9.154;2023-02-28T16:11:59;15.35;;;6.88;;
71464;SDS011;59274;49.874;9.154;2023-02-28T16:14:29;30.95;;;10.32;;
71464;SDS011;59274;49.874;9.154;2023-02-28T16:17:03;24.97;;;11.20;;
71464;SDS011;59274;49.874;9.154;2023-02-28T16:19:30;16.40;;;8.20;;
71464;SDS011;59274;49.874;9.154;2023-02-28T16:21:56;24.80;;;11.07;;
71464;SDS011;59274;49.874;9.154;2023-02-28T16:24:22;10.07;;;5.10;;
71464;SDS011;59274;49.874;9.154;2023-02-28T16:26:48;10.43;;;5.00;;
71464;SDS011;59274;49.874;9.154;2023-02-28T16:29:23;23.90;;;9.95;;
71464;SDS011;59274;49.874;9.154;2023-02-28T16:31:52;14.23;;;6.85;;
71464;SDS011;59274;49.874;9.154;2023-02-28T16:34:18;9.37;;;4.83;;
71464;SDS011;59274;49.874;9.154;2023-02-28T16:36:46;9.55;;;4.70;;
71464;SDS011;59274;49.874;9.154;2023-02-28T16:39:12;9.15;;;4.53;;
71464;SDS011;59274;49.874;9.154;2023-02-28T16:41:38;8.93;;;4.20;;
71464;SDS011;59274;49.874;9.154;2023-02-28T16:44:30;9.93;;;4.55;;
71464;SDS011;59274;49.874;9.154;2023-02-28T16:47:02;10.13;;;4.60;;
71464;SDS011;59274;49.874;9.154;2023-02-28T16:49:29;11.00;;;4.45;;
71464;SDS011;59274;49.874;9.154;2023-02-28T16:51:55;9.65;;;4.65;;
71464;SDS011;59274;49.874;9.154;2023-02-28T16:54:20;11.27;;;5.17;;
71464;SDS011;59274;49.874;9.154;2023-02-28T16:56:47;13.57;;;5.90;;
71464;SDS011;59274;49.874;9.154;2023-02-28T16:59:13;9.35;;;4.75;;
71464;SDS011;59274;49.874;9.154;2023-02-28T17:01:43;17.05;;;7.57;;
71464;SDS011;59274;49.874;9.154;2023-02-28T17:04:09;16.53;;;6.73;;
71464;SDS011;59274;49.874;9.154;2023-02-28T17:06:36;12.82;;;5.82;;
71464;SDS011;59274;49.874;9.154;2023-02-28T17:09:01;13.60;;;6.87;;
71464;SDS011;59274;49.874;9.154;2023-02-28T17:11:27;13.63;;;7.03;;
71464;SDS011;59274;49.874;9.154;2023-02-28T17:13:53;14.98;;;7.05;;
71464;SDS011;59274;49.874;9.154;2023-02-28T17:16:30;17.37;;;8.50;;
71464;SDS011;59274;49.874;9.154;2023-02-28T17:19:04;15.77;;;7.40;;
71464;SDS011;59274;49.874;9.154;2023-02-28T17:21:30;15.35;;;7.45;;
71464;SDS011;59274;49.874;9.154;2023-02-28T17:23:57;14.35;;;7.32;;
71464;SDS011;59274;49.874;9.154;2023-02-28T17:26:23;15.52;;;7.68;;
71464;SDS011;59274;49.874;9.154;2023-02-28T17:28:50;15.47;;;7.43;;